sensor_id;sensor_type;location;lat;lon;timestamp;temperature;humidity
47168;DHT22;32931;47.778;17.806;2023-03-01T00:01:06;3.60;97.50
47168;DHT22;32931;47.778;17.806;2023-03-01T00:03:33;3.70;97.50
47168;DHT22;32931;47.778;17.806;2023-03-01T00:06:00;3.70;97.40
47168;DHT22;32931;47.778;17.806;2023-03-01T00:08:27;3.70;97.60
47168;DHT22;32931;47.778;17.806;2023-03-01T00:11:05;3.60;98.00
47168;DHT22;32931;47.778;17.806;2023-03-01T00:13:32;3.70;98.30
47168;DHT22;32931;47.778;17.806;2023-03-01T00:15:58;3.70;98.00
47168;DHT22;32931;47.778;17.806;2023-03-01T00:18:27;3.70;97.70
47168;DHT22;32931;47.778;17.806;2023-03-01T00:20:54;3.70;97.80
47168;DHT22;32931;47.778;17.806;2023-03-01T00:23:21;3.70;98.30
47168;DHT22;32931;47.778;17.806;2023-03-01T00:25:48;3.70;98.50
47168;DHT22;32931;47.778;17.806;2023-03-01T00:28:15;3.70;98.70
47168;DHT22;32931;47.778;17.806;2023-03-01T00:30:41;3.70;98.80
47168;DHT22;32931;47.778;17.806;2023-03-01T00:33:08;3.80;98.90
47168;DHT22;32931;47.778;17.806;2023-03-01T00:35:34;3.70;99.00
47168;DHT22;32931;47.778;17.806;2023-03-01T00:38:01;3.80;99.10
47168;DHT22;32931;47.778;17.806;2023-03-01T00:40:29;3.80;99.00
47168;DHT22;32931;47.778;17.806;2023-03-01T00:42:55;3.80;99.00
47168;DHT22;32931;47.778;17.806;2023-03-01T00:45:22;3.70;99.40
47168;DHT22;32931;47.778;17.806;2023-03-01T00:47:49;3.70;99.30
47168;DHT22;32931;47.778;17.806;2023-03-01T00:50:15;3.70;99.20
47168;DHT22;32931;47.778;17.806;2023-03-01T00:52:42;3.70;99.20
47168;DHT22;32931;47.778;17.806;2023-03-01T00:55:08;3.70;99.40
47168;DHT22;32931;47.778;17.806;2023-03-01T00:57:35;3.70;99.40
47168;DHT22;32931;47.778;17.806;2023-03-01T01:00:01;3.70;99.50
47168;DHT22;32931;47.778;17.806;2023-03-01T01:02:27;3.70;99.40
47168;DHT22;32931;47.778;17.806;2023-03-01T01:04:53;3.70;99.30
47168;DHT22;32931;47.778;17.806;2023-03-01T01:07:19;3.70;99.00
47168;DHT22;32931;47.778;17.806;2023-03-01T01:09:48;3.80;99.00
47168;DHT22;32931;47.778;17.806;2023-03-01T01:12:14;3.80;98.90
47168;DHT22;32931;47.778;17.806;2023-03-01T01:14:40;3.80;98.60
47168;DHT22;32931;47.778;17.806;2023-03-01T01:17:06;3.80;98.60
47168;DHT22;32931;47.778;17.806;2023-03-01T01:19:33;3.80;98.70
47168;DHT22;32931;47.778;17.806;2023-03-01T01:21:59;3.80;98.60
47168;DHT22;32931;47.778;17.806;2023-03-01T01:24:25;3.80;98.70
47168;DHT22;32931;47.778;17.806;2023-03-01T01:26:51;3.90;99.00
47168;DHT22;32931;47.778;17.806;2023-03-01T01:29:18;3.90;99.30
47168;DHT22;32931;47.778;17.806;2023-03-01T01:31:44;3.90;99.30
47168;DHT22;32931;47.778;17.806;2023-03-01T01:34:15;3.90;99.30
47168;DHT22;32931;47.778;17.806;2023-03-01T01:36:42;3.90;99.50
47168;DHT22;32931;47.778;17.806;2023-03-01T01:39:09;3.80;99.50
47168;DHT22;32931;47.778;17.806;2023-03-01T01:41:40;3.80;99.60
47168;DHT22;32931;47.778;17.806;2023-03-01T01:46:58;3.80;99.80
47168;DHT22;32931;47.778;17.806;2023-03-01T01:49:36;3.80;99.90
47168;DHT22;32931;47.778;17.806;2023-03-01T01:52:27;3.70;99.90
47168;DHT22;32931;47.778;17.806;2023-03-01T01:57:47;3.80;99.90
47168;DHT22;32931;47.778;17.806;2023-03-01T02:00:23;3.90;99.90
47168;DHT22;32931;47.778;17.806;2023-03-01T02:02:55;3.90;99.90
47168;DHT22;32931;47.778;17.806;2023-03-01T02:08:14;3.90;99.90
47168;DHT22;32931;47.778;17.806;2023-03-01T02:10:40;3.90;99.90
47168;DHT22;32931;47.778;17.806;2023-03-01T02:13:08;4.00;99.90
47168;DHT22;32931;47.778;17.806;2023-03-01T02:15:35;4.00;99.90
47168;DHT22;32931;47.778;17.806;2023-03-01T02:18:04;4.00;99.90
47168;DHT22;32931;47.778;17.806;2023-03-01T02:23:03;4.10;99.90
47168;DHT22;32931;47.778;17.806;2023-03-01T02:25:33;4.10;99.90
47168;DHT22;32931;47.778;17.806;2023-03-01T02:30:47;4.10;99.90
47168;DHT22;32931;47.778;17.806;2023-03-01T02:33:34;4.10;99.90
47168;DHT22;32931;47.778;17.806;2023-03-01T02:36:14;4.10;99.90
47168;DHT22;32931;47.778;17.806;2023-03-01T02:38:42;4.10;99.90
47168;DHT22;32931;47.778;17.806;2023-03-01T02:41:09;4.20;99.90
47168;DHT22;32931;47.778;17.806;2023-03-01T02:43:36;4.20;99.90
47168;DHT22;32931;47.778;17.806;2023-03-01T02:46:13;4.20;99.90
47168;DHT22;32931;47.778;17.806;2023-03-01T02:48:51;4.20;99.90
47168;DHT22;32931;47.778;17.806;2023-03-01T02:56:31;4.30;99.90
47168;DHT22;32931;47.778;17.806;2023-03-01T02:58:57;4.30;99.90
47168;DHT22;32931;47.778;17.806;2023-03-01T03:01:27;4.30;99.90
47168;DHT22;32931;47.778;17.806;2023-03-01T03:04:07;4.30;99.90
47168;DHT22;32931;47.778;17.806;2023-03-01T03:06:34;4.30;99.90
47168;DHT22;32931;47.778;17.806;2023-03-01T03:09:00;4.40;99.90
47168;DHT22;32931;47.778;17.806;2023-03-01T03:11:26;4.40;99.90
47168;DHT22;32931;47.778;17.806;2023-03-01T03:13:53;4.40;99.90
47168;DHT22;32931;47.778;17.806;2023-03-01T03:16:20;4.40;99.90
47168;DHT22;32931;47.778;17.806;2023-03-01T03:18:47;4.40;99.90
47168;DHT22;32931;47.778;17.806;2023-03-01T03:21:14;4.40;99.90
47168;DHT22;32931;47.778;17.806;2023-03-01T03:23:40;4.40;99.90
47168;DHT22;32931;47.778;17.806;2023-03-01T03:26:06;4.40;99.90
47168;DHT22;32931;47.778;17.806;2023-03-01T03:28:35;4.40;99.90
47168;DHT22;32931;47.778;17.806;2023-03-01T03:31:07;4.40;99.90
47168;DHT22;32931;47.778;17.806;2023-03-01T03:33:33;4.40;99.90
47168;DHT22;32931;47.778;17.806;2023-03-01T03:35:59;4.40;99.90
47168;DHT22;32931;47.778;17.806;2023-03-01T03:38:26;4.30;99.90
47168;DHT22;32931;47.778;17.806;2023-03-01T03:41:02;4.30;99.90
47168;DHT22;32931;47.778;17.806;2023-03-01T03:43:31;4.30;99.90
47168;DHT22;32931;47.778;17.806;2023-03-01T03:45:58;4.30;99.90
47168;DHT22;32931;47.778;17.806;2023-03-01T03:48:25;4.30;99.90
47168;DHT22;32931;47.778;17.806;2023-03-01T03:50:54;4.30;99.90
47168;DHT22;32931;47.778;17.806;2023-03-01T03:53:22;4.30;99.90
47168;DHT22;32931;47.778;17.806;2023-03-01T03:55:48;4.20;99.90
47168;DHT22;32931;47.778;17.806;2023-03-01T03:58:18;4.20;99.90
47168;DHT22;32931;47.778;17.806;2023-03-01T04:00:46;4.20;99.90
47168;DHT22;32931;47.778;17.806;2023-03-01T04:03:15;4.10;99.90
47168;DHT22;32931;47.778;17.806;2023-03-01T04:05:42;4.10;99.90
47168;DHT22;32931;47.778;17.806;2023-03-01T04:08:08;4.00;99.90
47168;DHT22;32931;47.778;17.806;2023-03-01T04:10:40;4.00;99.90
47168;DHT22;32931;47.778;17.806;2023-03-01T04:13:10;3.90;99.90
47168;DHT22;32931;47.778;17.806;2023-03-01T04:15:36;3.90;99.90
47168;DHT22;32931;47.778;17.806;2023-03-01T04:18:03;3.90;99.90
47168;DHT22;32931;47.778;17.806;2023-03-01T04:20:31;3.90;99.90
47168;DHT22;32931;47.778;17.806;2023-03-01T04:23:04;3.90;99.90
47168;DHT22;32931;47.778;17.806;2023-03-01T04:25:45;3.80;99.90
47168;DHT22;32931;47.778;17.806;2023-03-01T04:28:12;3.80;99.90
47168;DHT22;32931;47.778;17.806;2023-03-01T04:30:38;3.80;99.90
47168;DHT22;32931;47.778;17.806;2023-03-01T04:33:06;3.80;99.90
47168;DHT22;32931;47.778;17.806;2023-03-01T04:35:32;3.80;99.90
47168;DHT22;32931;47.778;17.806;2023-03-01T04:38:00;3.80;99.90
47168;DHT22;32931;47.778;17.806;2023-03-01T04:40:26;3.80;99.90
47168;DHT22;32931;47.778;17.806;2023-03-01T04:42:53;3.70;99.90
47168;DHT22;32931;47.778;17.806;2023-03-01T04:45:19;3.70;99.90
47168;DHT22;32931;47.778;17.806;2023-03-01T04:47:46;3.70;99.90
47168;DHT22;32931;47.778;17.806;2023-03-01T04:50:15;3.70;99.90
47168;DHT22;32931;47.778;17.806;2023-03-01T04:52:43;3.70;99.90
47168;DHT22;32931;47.778;17.806;2023-03-01T04:55:10;3.70;99.90
47168;DHT22;32931;47.778;17.806;2023-03-01T04:57:36;3.70;99.90
47168;DHT22;32931;47.778;17.806;2023-03-01T05:00:04;3.70;99.90
47168;DHT22;32931;47.778;17.806;2023-03-01T05:05:39;3.60;99.90
47168;DHT22;32931;47.778;17.806;2023-03-01T05:08:07;3.70;99.90
47168;DHT22;32931;47.778;17.806;2023-03-01T05:10:35;3.70;99.90
47168;DHT22;32931;47.778;17.806;2023-03-01T05:13:03;3.70;99.90
47168;DHT22;32931;47.778;17.806;2023-03-01T05:15:31;3.70;99.90
47168;DHT22;32931;47.778;17.806;2023-03-01T05:17:59;3.70;99.90
47168;DHT22;32931;47.778;17.806;2023-03-01T05:20:27;3.70;99.90
47168;DHT22;32931;47.778;17.806;2023-03-01T05:22:58;3.70;99.90
47168;DHT22;32931;47.778;17.806;2023-03-01T05:25:26;3.70;99.90
47168;DHT22;32931;47.778;17.806;2023-03-01T05:27:52;3.70;99.90
47168;DHT22;32931;47.778;17.806;2023-03-01T05:30:19;3.70;99.90
47168;DHT22;32931;47.778;17.806;2023-03-01T05:32:49;3.70;99.90
47168;DHT22;32931;47.778;17.806;2023-03-01T05:35:22;3.70;99.90
47168;DHT22;32931;47.778;17.806;2023-03-01T05:37:49;3.70;99.90
47168;DHT22;32931;47.778;17.806;2023-03-01T05:40:18;3.70;99.90
47168;DHT22;32931;47.778;17.806;2023-03-01T05:42:56;3.70;99.90
47168;DHT22;32931;47.778;17.806;2023-03-01T05:45:24;3.70;99.90
47168;DHT22;32931;47.778;17.806;2023-03-01T05:47:51;3.70;99.90
47168;DHT22;32931;47.778;17.806;2023-03-01T05:50:20;3.70;99.90
47168;DHT22;32931;47.778;17.806;2023-03-01T05:52:48;3.70;99.90
47168;DHT22;32931;47.778;17.806;2023-03-01T05:55:19;3.70;99.90
47168;DHT22;32931;47.778;17.806;2023-03-01T05:57:46;3.80;99.90
47168;DHT22;32931;47.778;17.806;2023-03-01T06:00:14;3.80;99.90
47168;DHT22;32931;47.778;17.806;2023-03-01T06:02:41;3.80;99.90
47168;DHT22;32931;47.778;17.806;2023-03-01T06:05:09;3.80;99.90
47168;DHT22;32931;47.778;17.806;2023-03-01T06:07:35;3.80;99.90
47168;DHT22;32931;47.778;17.806;2023-03-01T06:10:03;3.80;99.90
47168;DHT22;32931;47.778;17.806;2023-03-01T06:12:34;3.90;99.90
47168;DHT22;32931;47.778;17.806;2023-03-01T06:15:00;3.90;99.90
47168;DHT22;32931;47.778;17.806;2023-03-01T06:17:30;3.90;99.90
47168;DHT22;32931;47.778;17.806;2023-03-01T06:19:56;3.90;99.90
47168;DHT22;32931;47.778;17.806;2023-03-01T06:22:23;4.00;99.90
47168;DHT22;32931;47.778;17.806;2023-03-01T06:24:49;4.00;99.90
47168;DHT22;32931;47.778;17.806;2023-03-01T06:27:15;4.00;99.90
47168;DHT22;32931;47.778;17.806;2023-03-01T06:29:42;4.10;99.90
47168;DHT22;32931;47.778;17.806;2023-03-01T06:32:08;4.10;99.90
47168;DHT22;32931;47.778;17.806;2023-03-01T06:34:34;4.10;99.90
47168;DHT22;32931;47.778;17.806;2023-03-01T06:37:00;4.20;99.90
47168;DHT22;32931;47.778;17.806;2023-03-01T06:39:32;4.30;99.90
47168;DHT22;32931;47.778;17.806;2023-03-01T06:41:58;4.30;99.90
47168;DHT22;32931;47.778;17.806;2023-03-01T06:44:25;4.40;99.90
47168;DHT22;32931;47.778;17.806;2023-03-01T06:46:51;4.40;99.90
47168;DHT22;32931;47.778;17.806;2023-03-01T06:49:17;4.40;99.90
47168;DHT22;32931;47.778;17.806;2023-03-01T06:51:44;4.50;99.90
47168;DHT22;32931;47.778;17.806;2023-03-01T06:54:10;4.50;99.90
47168;DHT22;32931;47.778;17.806;2023-03-01T06:56:36;4.60;99.90
47168;DHT22;32931;47.778;17.806;2023-03-01T06:59:03;4.60;99.90
47168;DHT22;32931;47.778;17.806;2023-03-01T07:01:30;4.70;99.90
47168;DHT22;32931;47.778;17.806;2023-03-01T07:03:56;4.70;99.90
47168;DHT22;32931;47.778;17.806;2023-03-01T07:06:23;4.70;99.90
47168;DHT22;32931;47.778;17.806;2023-03-01T07:08:49;4.80;99.90
47168;DHT22;32931;47.778;17.806;2023-03-01T07:11:15;4.80;99.90
47168;DHT22;32931;47.778;17.806;2023-03-01T07:13:42;4.90;99.90
47168;DHT22;32931;47.778;17.806;2023-03-01T07:16:08;4.90;99.90
47168;DHT22;32931;47.778;17.806;2023-03-01T07:18:34;4.90;99.90
47168;DHT22;32931;47.778;17.806;2023-03-01T07:21:05;5.00;99.90
47168;DHT22;32931;47.778;17.806;2023-03-01T07:23:32;5.00;99.90
47168;DHT22;32931;47.778;17.806;2023-03-01T07:25:58;5.00;99.90
47168;DHT22;32931;47.778;17.806;2023-03-01T07:28:24;5.00;99.90
47168;DHT22;32931;47.778;17.806;2023-03-01T07:30:51;5.10;99.90
47168;DHT22;32931;47.778;17.806;2023-03-01T07:33:17;5.10;99.90
47168;DHT22;32931;47.778;17.806;2023-03-01T07:35:43;5.10;99.90
47168;DHT22;32931;47.778;17.806;2023-03-01T07:38:10;5.20;99.90
47168;DHT22;32931;47.778;17.806;2023-03-01T07:40:36;5.20;99.90
47168;DHT22;32931;47.778;17.806;2023-03-01T07:43:02;5.30;99.90
47168;DHT22;32931;47.778;17.806;2023-03-01T07:45:29;5.30;99.90
47168;DHT22;32931;47.778;17.806;2023-03-01T07:47:55;5.30;99.90
47168;DHT22;32931;47.778;17.806;2023-03-01T07:50:22;5.40;99.90
47168;DHT22;32931;47.778;17.806;2023-03-01T07:52:49;5.40;99.90
47168;DHT22;32931;47.778;17.806;2023-03-01T07:55:16;5.40;99.90
47168;DHT22;32931;47.778;17.806;2023-03-01T07:57:42;5.30;99.90
47168;DHT22;32931;47.778;17.806;2023-03-01T08:00:11;5.30;99.90
47168;DHT22;32931;47.778;17.806;2023-03-01T08:02:37;5.40;99.90
47168;DHT22;32931;47.778;17.806;2023-03-01T08:05:04;5.40;99.90
47168;DHT22;32931;47.778;17.806;2023-03-01T08:07:30;5.40;99.90
47168;DHT22;32931;47.778;17.806;2023-03-01T08:09:56;5.40;99.90
47168;DHT22;32931;47.778;17.806;2023-03-01T08:12:22;5.40;99.90
47168;DHT22;32931;47.778;17.806;2023-03-01T08:14:49;5.50;99.90
47168;DHT22;32931;47.778;17.806;2023-03-01T08:17:15;5.60;99.90
47168;DHT22;32931;47.778;17.806;2023-03-01T08:19:42;5.60;99.90
47168;DHT22;32931;47.778;17.806;2023-03-01T08:22:08;5.60;99.90
47168;DHT22;32931;47.778;17.806;2023-03-01T08:24:35;5.70;99.90
47168;DHT22;32931;47.778;17.806;2023-03-01T08:27:01;5.70;99.90
47168;DHT22;32931;47.778;17.806;2023-03-01T08:29:31;5.80;99.90
47168;DHT22;32931;47.778;17.806;2023-03-01T08:31:57;5.80;99.90
47168;DHT22;32931;47.778;17.806;2023-03-01T08:34:23;5.90;99.90
47168;DHT22;32931;47.778;17.806;2023-03-01T08:36:49;6.00;99.90
47168;DHT22;32931;47.778;17.806;2023-03-01T08:39:20;6.00;99.90
47168;DHT22;32931;47.778;17.806;2023-03-01T08:41:46;6.10;99.90
47168;DHT22;32931;47.778;17.806;2023-03-01T08:44:14;6.10;99.90
47168;DHT22;32931;47.778;17.806;2023-03-01T08:46:43;6.20;99.90
47168;DHT22;32931;47.778;17.806;2023-03-01T08:49:14;6.20;99.90
47168;DHT22;32931;47.778;17.806;2023-03-01T08:51:41;6.30;99.90
47168;DHT22;32931;47.778;17.806;2023-03-01T08:54:11;6.40;99.90
47168;DHT22;32931;47.778;17.806;2023-03-01T08:56:38;6.40;99.90
47168;DHT22;32931;47.778;17.806;2023-03-01T08:59:04;6.50;99.90
47168;DHT22;32931;47.778;17.806;2023-03-01T09:01:31;6.60;99.90
47168;DHT22;32931;47.778;17.806;2023-03-01T09:03:57;6.70;99.90
47168;DHT22;32931;47.778;17.806;2023-03-01T09:06:23;6.80;99.90
47168;DHT22;32931;47.778;17.806;2023-03-01T09:08:50;6.90;99.90
47168;DHT22;32931;47.778;17.806;2023-03-01T09:11:19;7.00;99.90
47168;DHT22;32931;47.778;17.806;2023-03-01T09:13:46;7.00;99.90
47168;DHT22;32931;47.778;17.806;2023-03-01T09:16:14;7.10;99.90
47168;DHT22;32931;47.778;17.806;2023-03-01T09:18:41;7.30;99.90
47168;DHT22;32931;47.778;17.806;2023-03-01T09:23:42;7.40;99.90
47168;DHT22;32931;47.778;17.806;2023-03-01T09:26:14;7.40;99.90
47168;DHT22;32931;47.778;17.806;2023-03-01T09:28:42;7.50;99.90
47168;DHT22;32931;47.778;17.806;2023-03-01T09:31:08;7.60;99.90
47168;DHT22;32931;47.778;17.806;2023-03-01T09:33:35;7.70;99.90
47168;DHT22;32931;47.778;17.806;2023-03-01T09:36:03;7.80;99.90
47168;DHT22;32931;47.778;17.806;2023-03-01T09:38:30;7.90;99.90
47168;DHT22;32931;47.778;17.806;2023-03-01T09:40:56;8.00;99.90
47168;DHT22;32931;47.778;17.806;2023-03-01T09:45:54;8.20;99.90
47168;DHT22;32931;47.778;17.806;2023-03-01T09:48:25;8.30;99.90
47168;DHT22;32931;47.778;17.806;2023-03-01T09:50:52;8.40;99.90
47168;DHT22;32931;47.778;17.806;2023-03-01T09:53:22;8.50;99.90
47168;DHT22;32931;47.778;17.806;2023-03-01T09:55:54;8.60;99.90
47168;DHT22;32931;47.778;17.806;2023-03-01T10:01:32;8.80;99.90
47168;DHT22;32931;47.778;17.806;2023-03-01T10:04:21;8.80;99.90
47168;DHT22;32931;47.778;17.806;2023-03-01T10:09:50;9.10;99.90
47168;DHT22;32931;47.778;17.806;2023-03-01T10:12:19;9.10;99.90
47168;DHT22;32931;47.778;17.806;2023-03-01T10:15:14;9.30;99.90
47168;DHT22;32931;47.778;17.806;2023-03-01T10:17:50;9.30;99.10
47168;DHT22;32931;47.778;17.806;2023-03-01T10:22:47;9.40;99.00
47168;DHT22;32931;47.778;17.806;2023-03-01T10:30:43;9.60;98.10
47168;DHT22;32931;47.778;17.806;2023-03-01T10:33:24;9.60;98.00
47168;DHT22;32931;47.778;17.806;2023-03-01T10:35:51;9.60;96.70
47168;DHT22;32931;47.778;17.806;2023-03-01T10:38:18;9.60;97.50
47168;DHT22;32931;47.778;17.806;2023-03-01T10:40:55;9.70;97.40
47168;DHT22;32931;47.778;17.806;2023-03-01T10:43:29;9.70;95.80
47168;DHT22;32931;47.778;17.806;2023-03-01T10:45:57;9.70;95.80
47168;DHT22;32931;47.778;17.806;2023-03-01T10:48:26;9.70;96.20
47168;DHT22;32931;47.778;17.806;2023-03-01T10:53:41;9.60;96.00
47168;DHT22;32931;47.778;17.806;2023-03-01T10:58:36;9.70;95.90
47168;DHT22;32931;47.778;17.806;2023-03-01T11:01:24;9.70;95.40
47168;DHT22;32931;47.778;17.806;2023-03-01T11:06:33;9.80;95.10
47168;DHT22;32931;47.778;17.806;2023-03-01T11:09:18;9.90;95.50
47168;DHT22;32931;47.778;17.806;2023-03-01T11:11:45;10.00;94.10
47168;DHT22;32931;47.778;17.806;2023-03-01T11:14:17;10.00;95.30
47168;DHT22;32931;47.778;17.806;2023-03-01T11:16:46;10.10;95.10
47168;DHT22;32931;47.778;17.806;2023-03-01T11:21:50;10.10;94.60
47168;DHT22;32931;47.778;17.806;2023-03-01T11:24:18;10.10;94.10
47168;DHT22;32931;47.778;17.806;2023-03-01T11:26:53;10.10;93.60
47168;DHT22;32931;47.778;17.806;2023-03-01T11:29:45;10.10;93.70
47168;DHT22;32931;47.778;17.806;2023-03-01T11:32:14;10.10;93.10
47168;DHT22;32931;47.778;17.806;2023-03-01T11:43:38;10.40;94.00
47168;DHT22;32931;47.778;17.806;2023-03-01T11:54:10;10.80;93.90
47168;DHT22;32931;47.778;17.806;2023-03-01T11:56:45;10.90;93.60
47168;DHT22;32931;47.778;17.806;2023-03-01T12:10:26;10.80;93.30
47168;DHT22;32931;47.778;17.806;2023-03-01T12:16:01;10.90;92.80
47168;DHT22;32931;47.778;17.806;2023-03-01T12:24:31;10.90;92.20
47168;DHT22;32931;47.778;17.806;2023-03-01T12:29:35;10.90;93.40
47168;DHT22;32931;47.778;17.806;2023-03-01T12:32:15;10.90;93.10
47168;DHT22;32931;47.778;17.806;2023-03-01T12:43:36;11.30;92.70
47168;DHT22;32931;47.778;17.806;2023-03-01T12:46:28;11.40;92.40
47168;DHT22;32931;47.778;17.806;2023-03-01T12:49:12;11.50;93.00
47168;DHT22;32931;47.778;17.806;2023-03-01T12:51:41;11.50;92.20
47168;DHT22;32931;47.778;17.806;2023-03-01T12:54:46;11.50;92.70
47168;DHT22;32931;47.778;17.806;2023-03-01T13:00:27;11.70;92.90
47168;DHT22;32931;47.778;17.806;2023-03-01T13:08:56;11.60;92.00
47168;DHT22;32931;47.778;17.806;2023-03-01T13:11:26;11.70;92.20
47168;DHT22;32931;47.778;17.806;2023-03-01T13:16:54;11.80;91.40
47168;DHT22;32931;47.778;17.806;2023-03-01T13:19:24;11.90;92.20
47168;DHT22;32931;47.778;17.806;2023-03-01T13:21:53;11.90;91.90
47168;DHT22;32931;47.778;17.806;2023-03-01T13:24:43;11.90;91.80
47168;DHT22;32931;47.778;17.806;2023-03-01T13:27:18;12.00;90.90
47168;DHT22;32931;47.778;17.806;2023-03-01T13:29:50;12.00;91.60
47168;DHT22;32931;47.778;17.806;2023-03-01T13:32:24;12.00;91.40
47168;DHT22;32931;47.778;17.806;2023-03-01T13:34:53;12.00;91.10
47168;DHT22;32931;47.778;17.806;2023-03-01T13:37:27;11.90;91.70
47168;DHT22;32931;47.778;17.806;2023-03-01T13:39:56;12.00;91.60
47168;DHT22;32931;47.778;17.806;2023-03-01T13:42:44;12.10;91.70
47168;DHT22;32931;47.778;17.806;2023-03-01T13:45:19;12.30;91.40
47168;DHT22;32931;47.778;17.806;2023-03-01T13:47:47;12.40;91.50
47168;DHT22;32931;47.778;17.806;2023-03-01T13:50:55;12.50;91.60
47168;DHT22;32931;47.778;17.806;2023-03-01T13:53:25;12.60;90.40
47168;DHT22;32931;47.778;17.806;2023-03-01T13:55:56;12.80;91.10
47168;DHT22;32931;47.778;17.806;2023-03-01T13:58:32;12.90;90.70
47168;DHT22;32931;47.778;17.806;2023-03-01T14:01:07;13.00;90.90
47168;DHT22;32931;47.778;17.806;2023-03-01T14:03:41;13.00;90.00
47168;DHT22;32931;47.778;17.806;2023-03-01T14:06:13;12.90;90.40
47168;DHT22;32931;47.778;17.806;2023-03-01T14:08:39;13.00;90.20
47168;DHT22;32931;47.778;17.806;2023-03-01T14:17:16;13.20;90.00
47168;DHT22;32931;47.778;17.806;2023-03-01T14:19:28;13.20;90.00
47168;DHT22;32931;47.778;17.806;2023-03-01T14:22:21;13.40;90.10
47168;DHT22;32931;47.778;17.806;2023-03-01T14:25:34;13.50;86.60
47168;DHT22;32931;47.778;17.806;2023-03-01T14:27:39;13.40;86.40
47168;DHT22;32931;47.778;17.806;2023-03-01T14:33:02;13.40;87.80
47168;DHT22;32931;47.778;17.806;2023-03-01T14:35:34;13.40;88.30
47168;DHT22;32931;47.778;17.806;2023-03-01T14:38:01;13.30;88.40
47168;DHT22;32931;47.778;17.806;2023-03-01T14:40:34;13.20;88.70
47168;DHT22;32931;47.778;17.806;2023-03-01T14:43:04;13.10;87.70
47168;DHT22;32931;47.778;17.806;2023-03-01T14:45:34;13.10;88.30
47168;DHT22;32931;47.778;17.806;2023-03-01T14:48:02;13.00;88.10
47168;DHT22;32931;47.778;17.806;2023-03-01T14:50:34;12.90;88.50
47168;DHT22;32931;47.778;17.806;2023-03-01T14:53:06;12.80;88.90
47168;DHT22;32931;47.778;17.806;2023-03-01T14:55:42;12.80;89.10
47168;DHT22;32931;47.778;17.806;2023-03-01T14:58:15;12.90;88.90
47168;DHT22;32931;47.778;17.806;2023-03-01T15:00:48;12.80;89.20
47168;DHT22;32931;47.778;17.806;2023-03-01T15:05:58;12.80;90.00
47168;DHT22;32931;47.778;17.806;2023-03-01T15:08:26;12.80;90.10
47168;DHT22;32931;47.778;17.806;2023-03-01T15:11:04;12.80;90.00
47168;DHT22;32931;47.778;17.806;2023-03-01T15:13:33;13.00;90.10
47168;DHT22;32931;47.778;17.806;2023-03-01T15:16:06;13.20;89.90
47168;DHT22;32931;47.778;17.806;2023-03-01T15:18:34;13.30;88.70
47168;DHT22;32931;47.778;17.806;2023-03-01T15:21:18;13.20;88.40
47168;DHT22;32931;47.778;17.806;2023-03-01T15:26:33;13.10;88.20
47168;DHT22;32931;47.778;17.806;2023-03-01T15:29:01;13.10;88.30
47168;DHT22;32931;47.778;17.806;2023-03-01T15:31:31;13.10;88.70
47168;DHT22;32931;47.778;17.806;2023-03-01T15:34:31;13.30;88.40
47168;DHT22;32931;47.778;17.806;2023-03-01T15:37:00;13.30;86.60
47168;DHT22;32931;47.778;17.806;2023-03-01T15:39:33;13.20;88.10
47168;DHT22;32931;47.778;17.806;2023-03-01T15:42:11;13.10;87.40
47168;DHT22;32931;47.778;17.806;2023-03-01T15:44:39;12.90;87.90
47168;DHT22;32931;47.778;17.806;2023-03-01T15:47:24;12.70;88.10
47168;DHT22;32931;47.778;17.806;2023-03-01T15:49:53;12.50;87.80
47168;DHT22;32931;47.778;17.806;2023-03-01T15:52:26;12.30;88.50
47168;DHT22;32931;47.778;17.806;2023-03-01T15:55:00;12.10;88.90
47168;DHT22;32931;47.778;17.806;2023-03-01T15:57:27;11.90;89.30
47168;DHT22;32931;47.778;17.806;2023-03-01T15:59:53;11.80;89.90
47168;DHT22;32931;47.778;17.806;2023-03-01T16:02:20;11.50;90.10
47168;DHT22;32931;47.778;17.806;2023-03-01T16:04:47;11.40;90.30
47168;DHT22;32931;47.778;17.806;2023-03-01T16:07:17;11.20;90.50
47168;DHT22;32931;47.778;17.806;2023-03-01T16:09:43;11.00;90.60
47168;DHT22;32931;47.778;17.806;2023-03-01T16:12:18;10.90;90.80
47168;DHT22;32931;47.778;17.806;2023-03-01T16:14:47;10.80;90.90
47168;DHT22;32931;47.778;17.806;2023-03-01T16:17:14;10.60;91.10
47168;DHT22;32931;47.778;17.806;2023-03-01T16:19:41;10.50;91.20
47168;DHT22;32931;47.778;17.806;2023-03-01T16:22:10;10.30;91.30
47168;DHT22;32931;47.778;17.806;2023-03-01T16:24:36;10.20;91.30
47168;DHT22;32931;47.778;17.806;2023-03-01T16:27:02;10.00;91.40
47168;DHT22;32931;47.778;17.806;2023-03-01T16:29:29;9.90;91.60
47168;DHT22;32931;47.778;17.806;2023-03-01T16:31:55;9.80;91.70
47168;DHT22;32931;47.778;17.806;2023-03-01T16:34:21;9.60;91.80
47168;DHT22;32931;47.778;17.806;2023-03-01T16:36:49;9.50;91.90
47168;DHT22;32931;47.778;17.806;2023-03-01T16:39:15;9.30;91.90
47168;DHT22;32931;47.778;17.806;2023-03-01T16:41:42;9.20;92.10
47168;DHT22;32931;47.778;17.806;2023-03-01T16:44:08;9.10;92.20
47168;DHT22;32931;47.778;17.806;2023-03-01T16:46:34;9.00;92.20
47168;DHT22;32931;47.778;17.806;2023-03-01T16:49:00;8.90;92.40
47168;DHT22;32931;47.778;17.806;2023-03-01T16:51:27;8.80;92.50
47168;DHT22;32931;47.778;17.806;2023-03-01T16:53:55;8.60;92.60
47168;DHT22;32931;47.778;17.806;2023-03-01T16:56:21;8.50;92.70
47168;DHT22;32931;47.778;17.806;2023-03-01T16:58:48;8.40;92.70
47168;DHT22;32931;47.778;17.806;2023-03-01T17:01:16;8.40;92.80
47168;DHT22;32931;47.778;17.806;2023-03-01T17:03:44;8.30;92.80
47168;DHT22;32931;47.778;17.806;2023-03-01T17:06:14;8.20;92.90
47168;DHT22;32931;47.778;17.806;2023-03-01T17:08:41;8.10;93.10
47168;DHT22;32931;47.778;17.806;2023-03-01T17:11:10;8.00;93.20
47168;DHT22;32931;47.778;17.806;2023-03-01T17:13:37;8.00;93.30
47168;DHT22;32931;47.778;17.806;2023-03-01T17:16:06;8.00;93.40
47168;DHT22;32931;47.778;17.806;2023-03-01T17:18:32;7.90;93.40
47168;DHT22;32931;47.778;17.806;2023-03-01T17:20:59;7.90;93.40
47168;DHT22;32931;47.778;17.806;2023-03-01T17:23:26;7.90;93.50
47168;DHT22;32931;47.778;17.806;2023-03-01T17:25:53;7.80;93.50
47168;DHT22;32931;47.778;17.806;2023-03-01T17:28:22;7.80;93.60
47168;DHT22;32931;47.778;17.806;2023-03-01T17:30:48;7.70;93.80
47168;DHT22;32931;47.778;17.806;2023-03-01T17:33:15;7.60;94.10
47168;DHT22;32931;47.778;17.806;2023-03-01T17:35:41;7.50;93.90
47168;DHT22;32931;47.778;17.806;2023-03-01T17:38:07;7.50;94.00
47168;DHT22;32931;47.778;17.806;2023-03-01T17:40:33;7.30;94.10
47168;DHT22;32931;47.778;17.806;2023-03-01T17:43:00;7.30;94.20
47168;DHT22;32931;47.778;17.806;2023-03-01T17:45:27;7.20;94.20
47168;DHT22;32931;47.778;17.806;2023-03-01T17:47:53;7.10;94.30